Juan Mendoza Airport

Airport
ICAO code: 
SLOR
Summary
ICAO Region: 
CARSAM
Territory: 
Location: 
Oruro, Oruro
Serving: 
Oruro
Elevation: 
12152 ft
Coordinates: 
Aerial View: 
17° 57' 45.32" S, 67° 4' 34.45" W
Metar
Observation
SLOR 182000Z 04013G23KT 8000 VCSH STC023 FEW025CB SCT070 BKN200 12/06 Q1034
Station
Oruro
Date/Time
2022-01-18 20:00:00
Wind direction
40°
Wind speed
13 kts
Lowest cloud amount
few clouds
Temperature
12°C
Dew point
6°C
Humidity
66%
QNH
1034 hPa
Weather condition
n/a

Juan Mendoza Airport is an extremely high elevation airport serving the city of Oruro, the capital of the Oruro Department in Bolivia.

Climatology

Cold Semi-arid climate (Köppen climate classification BSk).

Runways

Designator Length Width Surface Rops
9/27 1867 37 GRE No/No
18/36 2461 23 ASP No/No
Airport map: 
Aerial View: 

SKYbrary Partners:

Safety knowledge contributed by: